x

Georgian Bay (45137) Wave Buoy

9:00pm - Thu 28th May 2015 All times are CDT. -5 hours from GMT.

  • Sig Wave height 0.3ft
  • Peak Period 4s
  • Wind
    7mph
  • Sea Temp 45°f
  • Air Temp 46°f
  • Sea Pressure 1024.6mb
  • Georgian Bay
  • Georgian Bay

More Historic Weather Station data

Upgrade to MSW Pro to gain access to the past 30 days of data for over 8000 Wavebouys and Weather Stations around the globe.

Join Pro

Comparision Forecast

View Surf forecast
   
Thu 05/28 9:00pm 0.3ft 4s 7
mph
1024.6mb 45f 46f
8:00pm 0.3ft 3s 7
mph
1024.7mb 46f 45f
7:00pm 0.3ft 3s 4
mph
1024.7mb 48f 52f
6:00pm 0.3ft 4s 7
mph
1024.3mb 48f 52f
5:00pm 0.3ft 4s 7
mph
1024.4mb 49f 53f
4:00pm 0.3ft 3s 2
mph
1024.8mb 47f 55f
3:00pm 0.3ft 4s 2
mph
1025.1mb 49f 55f
2:00pm 0.3ft 4s 2
mph
1025.7mb 47f 52f
1:00pm 0.3ft 4s 2 4 mph 1026mb 43f 47f
12:00pm 0.3ft 4s 7 9 mph 1025.8mb 42f 45f
11:00am 0.3ft 4s 7 9 mph 1025mb 42f 44f
10:00am 0.7ft 4s 2
mph
1024.4mb 42f 49f
9:00am 0.7ft 4s 2 4 mph 1024.1mb 42f 47f
8:00am 0.7ft 3s 2 4 mph 1023.6mb 41f 46f
7:00am 1ft 3s 7
mph
1022.7mb 41f 47f
6:00am 1ft 3s 7 9 mph 1022.1mb 41f 46f
5:00am 1.3ft 3s 9 11 mph 1021.1mb 41f 46f
4:00am 1.6ft 4s 11
mph
1020.1mb 41f 47f
3:00am 2ft 4s 13 16 mph 1018.8mb 41f 47f
2:00am 2.5ft 4s 16 18 mph 1017.7mb 41f 48f
1:00am 1.6ft 3s 18 22 mph 1016.4mb 41f 48f
12:00am 1.6ft 4s 16 18 mph 1015.6mb 41f 47f
Wed 05/27 11:00pm 1.3ft 4s 11 13 mph 1014.7mb 41f 44f
10:00pm 1.6ft 4s 11 13 mph 1014.2mb 41f 43f
9:00pm 2ft 4s 16 18 mph 1013.4mb 41f 43f
8:00pm 2ft 4s 16 18 mph 1012.5mb 41f 46f
7:00pm 2ft 4s 13 16 mph 1012.4mb 40f 44f
6:00pm 2ft 4s 13 16 mph 1012mb 40f 44f
5:00pm 2ft 4s 16 18 mph 1011.5mb 41f 46f
4:00pm 2ft 4s 13 16 mph 1010.8mb 41f 49f
3:00pm 2ft 4s 11 13 mph 1010.8mb 41f 49f
2:00pm 2ft 4s 7 9 mph 1011.4mb 40f 48f
1:00pm 2ft 4s 16 18 mph 1011mb 40f 50f
12:00pm 2ft 3s 11
mph
1011.6mb 40f 47f
11:00am 1.3ft 3s 11 13 mph 1011.2mb 40f 47f
10:00am 1.6ft 4s 13 16 mph 1011mb 40f 47f
9:00am 2.5ft 4s 16 18 mph 1010.5mb 40f 48f
8:00am 2ft 4s 16 18 mph 1010.7mb 40f 49f
7:00am 2ft 4s 13 16 mph 1010.8mb 40f 47f
6:00am 2ft 4s 13 16 mph 1010.6mb 40f 46f
5:00am 2.5ft 4s 13 16 mph 1010.3mb 40f 46f
4:00am 2.5ft 4s 16
mph
1009.8mb 40f 48f
3:00am 1.6ft 4s 20 22 mph 1009.1mb 40f 52f
2:00am 1.3ft 3s 13 16 mph 1009.6mb 40f 48f
1:00am 1ft 3s 11
mph
1009.9mb 40f 47f
12:00am 0.7ft 2s 11 13 mph 1010.2mb 40f 47f
Tue 05/26 11:00pm 0.3ft 2s 13 16 mph 1010.1mb 40f 48f
10:00pm 0.3ft 3s 11 13 mph 1010.5mb 41f 49f
9:00pm 0.3ft 2s 9
mph
1011.5mb 40f 52f
8:00pm 0.3ft 3s 9
mph
1011.9mb 40f 52f
7:00pm 0.7ft 3s 9
mph
1012.2mb 40f 50f
6:00pm 0.7ft 3s 7 9 mph 1012.9mb 40f 45f
5:00pm 0.7ft 3s 7
mph
1013.5mb 40f 44f
4:00pm 1ft 3s 7 9 mph 1014.5mb 40f 46f
3:00pm 1ft 3s  -  2 mph 1015.1mb 40f 52f
2:00pm 1ft 3s 4
mph
1015.8mb 40f 46f
1:00pm 1ft 3s 4
mph
1016.1mb 40f 47f
12:00pm 1.3ft 3s 2 4 mph 1016.3mb 40f 46f
11:00am 1.3ft 3s 4
mph
1016.5mb 39f 44f
10:00am 1.3ft 3s 9
mph
1016.1mb 39f 46f
9:00am 1.3ft 4s 13
mph
1015.9mb 39f 46f
8:00am 1.3ft 3s 13 16 mph 1015.9mb 39f 46f
7:00am 1.3ft 4s 13 16 mph 1015.4mb 39f 45f
6:00am 1.3ft 3s 9 11 mph 1015mb 39f 44f
5:00am 1.3ft 3s 7 9 mph 1014.6mb 39f 44f
4:00am 1.3ft 3s 9 13 mph 1013.9mb 39f 47f
3:00am 1.3ft 3s 11 13 mph 1013.2mb 39f 46f
2:00am 1.3ft 4s 11 13 mph 1013.1mb 39f 45f
1:00am 1.6ft 4s 11
mph
1013mb 39f 44f
12:00am 1.6ft 4s 9 11 mph 1012.9mb 39f 43f
Mon 05/25 11:00pm 1.3ft 3s 13
mph
1012.1mb 39f 46f
10:00pm 1.3ft 3s 9 11 mph 1011.7mb 39f 47f
9:00pm 1.3ft 3s 16 18 mph 1010.6mb 39f 49f
8:00pm 1.3ft 3s 16 18 mph 1010.3mb 39f 47f
7:00pm 1.3ft 3s 13 16 mph 1010.4mb 39f 46f
6:00pm 1ft 4s 16 18 mph 1010.3mb 39f 47f
5:00pm 1ft 4s 11 16 mph 1011mb 40f 47f
4:00pm 1ft 4s 13
mph
1011.9mb 40f 44f
3:00pm 1.3ft 4s 11 13 mph 1013.2mb 40f 46f
2:00pm 1.3ft 4s 9
mph
1013.4mb 40f 45f
1:00pm 1.6ft 4s 11
mph
1014mb 40f 44f
12:00pm 1.3ft 4s 11 13 mph 1014.3mb 40f 45f
11:00am 1.3ft 3s 11
mph
1014.7mb 40f 46f
10:00am 1ft 3s 11 13 mph 1015.3mb 40f 47f
9:00am 0.7ft 2s 13
mph
1016mb 39f 47f
8:00am 0.7ft 2s 9
mph
1016.9mb 39f 46f
7:00am 0.7ft 3s 13
mph
1016.9mb 39f 45f
6:00am 0.7ft 3s 13 18 mph 1017.3mb 39f 45f
5:00am 0.7ft 3s 9
mph
1017.7mb 39f 46f
4:00am 1ft 3s 7
mph
1018.6mb 39f 45f